Time;durP1;ratioP1;P1;durP2;ratioP2;P2;SDS_P1;SDS_P2;PMS_P1;PMS_P2;Temp;Humidity;BMP_temperature;BMP_pressure;BME280_temperature;BME280_humidity;BME280_pressure;Samples;Min_cycle;Max_cycle;Signal;HPM_P1;HPM_P2
2020/12/28 00:00:35;;;;;;;8.60;8.10;;;5.30;99.90;;;;;;4974488;28;20599;-78
2020/12/28 00:03:01;;;;;;;8.90;8.40;;;5.30;99.90;;;;;;4973698;28;20240;-78
2020/12/28 00:05:28;;;;;;;9.07;8.47;;;5.30;99.90;;;;;;4967399;28;20818;-78
2020/12/28 00:07:55;;;;;;;8.67;8.17;;;5.30;99.90;;;;;;4974591;28;20563;-78
2020/12/28 00:10:22;;;;;;;9.33;8.73;;;5.40;99.90;;;;;;4958386;28;20643;-78
2020/12/28 00:12:48;;;;;;;9.03;8.43;;;5.40;99.90;;;;;;4974757;28;20232;-78
2020/12/28 00:15:20;;;;;;;8.73;8.23;;;5.50;99.90;;;;;;4965619;28;20197;-78
2020/12/28 00:17:47;;;;;;;8.87;8.30;;;5.50;99.90;;;;;;4970375;28;20238;-78
2020/12/28 00:20:13;;;;;;;8.77;8.30;;;5.60;99.90;;;;;;4970426;28;20634;-78
2020/12/28 00:22:40;;;;;;;9.20;8.70;;;5.60;99.90;;;;;;4969943;28;20210;-78
2020/12/28 00:25:07;;;;;;;8.97;8.47;;;5.60;99.90;;;;;;4972867;28;20234;-78
2020/12/28 00:27:34;;;;;;;9.07;8.57;;;5.60;99.90;;;;;;4974357;28;20244;-78
2020/12/28 00:30:00;;;;;;;8.80;8.30;;;5.70;99.90;;;;;;4974174;28;20214;-78
2020/12/28 00:32:27;;;;;;;9.13;8.53;;;5.70;99.90;;;;;;4969814;28;20218;-78
2020/12/28 00:34:53;;;;;;;8.63;8.20;;;5.70;99.90;;;;;;4972313;28;20198;-78
2020/12/28 00:37:20;;;;;;;8.90;8.40;;;5.70;99.90;;;;;;4974150;28;20241;-78
2020/12/28 00:39:46;;;;;;;8.67;8.17;;;5.80;99.90;;;;;;4973832;28;20285;-78
2020/12/28 00:42:12;;;;;;;8.70;8.20;;;5.80;99.90;;;;;;4972901;28;20225;-77
2020/12/28 00:44:39;;;;;;;8.77;8.27;;;5.80;99.90;;;;;;4974353;28;20230;-78
2020/12/28 00:47:05;;;;;;;8.70;8.20;;;5.80;99.90;;;;;;4974761;28;20260;-78
2020/12/28 00:49:32;;;;;;;8.80;8.30;;;5.80;99.90;;;;;;4972884;28;20194;-79
2020/12/28 00:51:59;;;;;;;8.70;8.20;;;5.80;99.90;;;;;;4973032;28;20198;-78
2020/12/28 00:54:26;;;;;;;8.37;7.93;;;5.80;99.90;;;;;;4972515;28;20663;-78
2020/12/28 00:56:52;;;;;;;8.40;7.90;;;5.80;99.90;;;;;;4967386;28;20916;-78
2020/12/28 00:59:18;;;;;;;8.53;8.03;;;5.80;99.90;;;;;;4964699;28;20297;-79
2020/12/28 01:01:46;;;;;;;8.50;8.00;;;5.80;99.90;;;;;;4973127;28;20698;-79
2020/12/28 01:04:13;;;;;;;8.60;8.10;;;5.80;99.90;;;;;;4966882;28;20201;-79
2020/12/28 01:06:52;;;;;;;8.50;8.00;;;5.80;99.90;;;;;;4973197;28;20237;-78
2020/12/28 01:09:38;;;;;;;8.60;8.10;;;5.70;99.90;;;;;;4967109;28;20265;-78
2020/12/28 01:12:05;;;;;;;8.63;8.13;;;5.70;99.90;;;;;;4972853;28;20202;-78
2020/12/28 01:14:32;;;;;;;8.60;8.10;;;5.70;99.90;;;;;;4965185;28;20701;-78
2020/12/28 01:17:00;;;;;;;8.80;8.30;;;5.70;99.90;;;;;;4972650;28;20328;-78
2020/12/28 01:19:26;;;;;;;9.10;8.50;;;5.60;99.90;;;;;;4969847;28;20195;-78
2020/12/28 01:21:52;;;;;;;9.07;8.57;;;5.70;99.90;;;;;;4966136;28;20257;-78
2020/12/28 01:24:19;;;;;;;9.30;8.70;;;5.60;99.90;;;;;;4960653;28;20266;-78
2020/12/28 01:26:46;;;;;;;9.00;8.40;;;5.60;99.90;;;;;;4973560;28;20213;-78
2020/12/28 01:29:13;;;;;;;9.00;8.50;;;5.60;99.90;;;;;;4972109;28;20577;-78
2020/12/28 01:31:42;;;;;;;9.33;8.73;;;5.60;99.90;;;;;;4966493;28;20330;-78
2020/12/28 01:34:15;;;;;;;10.03;9.23;;;5.60;99.90;;;;;;4975305;28;20194;-78
2020/12/28 01:36:59;;;;;;;9.00;8.50;;;5.60;99.90;;;;;;4971553;28;20762;-78
2020/12/28 01:39:41;;;;;;;8.90;8.40;;;5.60;99.90;;;;;;4971261;28;20206;-78
2020/12/28 01:42:08;;;;;;;8.63;8.13;;;5.60;99.90;;;;;;4976428;28;20225;-78
2020/12/28 01:44:35;;;;;;;8.70;8.20;;;5.70;99.90;;;;;;4976380;28;20190;-78
2020/12/28 01:47:13;;;;;;;9.07;8.47;;;5.70;99.90;;;;;;4975226;28;20217;-78
2020/12/28 01:49:41;;;;;;;8.80;8.30;;;5.70;99.90;;;;;;4975554;28;20563;-78
2020/12/28 01:52:07;;;;;;;9.13;8.53;;;5.70;99.90;;;;;;4975529;28;20198;-78
2020/12/28 01:54:34;;;;;;;8.90;8.40;;;5.70;99.90;;;;;;4975707;28;20190;-78
2020/12/28 01:57:01;;;;;;;8.87;8.27;;;5.70;99.90;;;;;;4986039;28;20284;-78
2020/12/28 01:59:37;;;;;;;8.47;7.97;;;5.70;99.90;;;;;;4968665;28;20200;-78
2020/12/28 02:02:10;;;;;;;8.67;8.17;;;5.60;99.90;;;;;;4975574;28;20218;-78
2020/12/28 02:04:37;;;;;;;8.80;8.30;;;5.60;99.90;;;;;;4973677;28;20503;-78
2020/12/28 02:07:07;;;;;;;8.10;7.70;;;5.60;99.90;;;;;;4974470;28;20710;-78
2020/12/28 02:09:34;;;;;;;8.37;7.97;;;5.60;99.90;;;;;;4974745;28;20533;-78
2020/12/28 02:12:03;;;;;;;8.50;8.00;;;5.60;99.90;;;;;;4975331;28;20190;-78
2020/12/28 02:14:33;;;;;;;8.60;8.10;;;5.60;99.90;;;;;;4971714;28;20205;-79
2020/12/28 02:17:13;;;;;;;8.40;7.90;;;5.60;99.90;;;;;;4973780;28;20241;-78
2020/12/28 02:19:45;;;;;;;8.43;8.00;;;5.60;99.90;;;;;;4968613;28;20194;-78
2020/12/28 02:22:13;;;;;;;8.17;7.77;;;5.60;99.90;;;;;;4973518;28;20214;-78
2020/12/28 02:24:48;;;;;;;8.50;8.00;;;5.60;99.90;;;;;;4973674;28;20201;-78
2020/12/28 02:27:14;;;;;;;8.43;8.03;;;5.60;99.90;;;;;;4972407;28;20222;-78
2020/12/28 02:29:41;;;;;;;8.70;8.20;;;5.60;99.90;;;;;;4980874;28;20203;-78
2020/12/28 02:32:09;;;;;;;8.50;8.00;;;5.50;99.90;;;;;;4967672;28;20218;-78
2020/12/28 02:34:54;;;;;;;8.50;8.10;;;5.60;99.90;;;;;;4971028;28;20221;-78
2020/12/28 02:37:29;;;;;;;8.80;8.30;;;5.60;99.90;;;;;;4963921;28;20217;-78
2020/12/28 02:40:00;;;;;;;8.30;7.90;;;5.60;99.90;;;;;;4976433;28;20705;-78
2020/12/28 02:42:32;;;;;;;8.53;8.03;;;5.60;99.90;;;;;;4972708;28;20472;-78
2020/12/28 02:45:16;;;;;;;8.60;8.10;;;5.60;99.90;;;;;;4974265;28;20579;-78
2020/12/28 02:48:01;;;;;;;8.70;8.20;;;5.60;99.90;;;;;;4974645;28;20208;-78
2020/12/28 02:50:46;;;;;;;8.90;8.40;;;5.60;99.90;;;;;;4963013;28;20293;-78
2020/12/28 02:53:31;;;;;;;8.60;8.10;;;5.60;99.90;;;;;;4972305;28;20514;-78
2020/12/28 02:56:16;;;;;;;8.90;8.40;;;5.60;99.90;;;;;;4972389;28;20592;-78
2020/12/28 02:59:01;;;;;;;8.57;8.10;;;5.60;99.90;;;;;;4972985;28;20713;-78
2020/12/28 03:01:47;;;;;;;8.50;8.10;;;5.60;99.90;;;;;;4970363;28;20504;-78
2020/12/28 03:04:32;;;;;;;8.40;7.90;;;5.60;99.90;;;;;;4968938;28;20261;-78
2020/12/28 03:07:25;;;;;;;8.53;8.10;;;5.60;99.90;;;;;;4959680;28;20216;-78
2020/12/28 03:10:11;;;;;;;8.40;8.00;;;5.50;99.90;;;;;;4976084;28;20679;-78
2020/12/28 03:12:56;;;;;;;8.50;8.00;;;5.50;99.90;;;;;;4971582;28;20209;-79
2020/12/28 03:15:40;;;;;;;8.10;7.70;;;5.50;99.90;;;;;;4966416;28;20209;-78
2020/12/28 03:18:25;;;;;;;8.33;7.93;;;5.50;99.90;;;;;;4975930;28;20456;-78
2020/12/28 03:21:10;;;;;;;8.37;7.97;;;5.50;99.90;;;;;;4967394;28;20204;-78
2020/12/28 03:23:54;;;;;;;8.63;8.03;;;5.50;99.90;;;;;;4968387;28;20213;-78
2020/12/28 03:27:02;;;;;;;8.80;8.30;;;5.50;99.90;;;;;;4925834;29;20734;-78
2020/12/28 03:29:47;;;;;;;8.80;8.30;;;5.50;99.90;;;;;;4971609;28;20248;-78
2020/12/28 03:32:32;;;;;;;8.37;7.97;;;5.60;99.90;;;;;;4971883;28;20205;-79
2020/12/28 03:35:17;;;;;;;8.40;8.00;;;5.60;99.90;;;;;;4965530;28;20246;-76
2020/12/28 03:38:02;;;;;;;8.40;8.00;;;5.60;99.90;;;;;;4971579;28;20669;-77
2020/12/28 03:40:46;;;;;;;8.30;7.90;;;5.60;99.90;;;;;;4968379;28;20212;-76
2020/12/28 03:43:32;;;;;;;8.50;8.10;;;5.60;99.90;;;;;;4966097;28;20480;-75
2020/12/28 03:46:16;;;;;;;8.83;8.33;;;5.60;99.90;;;;;;4959901;28;20309;-76
2020/12/28 03:49:01;;;;;;;8.90;8.40;;;5.70;99.90;;;;;;4969413;28;20208;-77
2020/12/28 03:51:46;;;;;;;8.43;8.00;;;5.60;99.90;;;;;;4968429;28;20604;-78
2020/12/28 03:54:31;;;;;;;8.50;8.00;;;5.60;99.90;;;;;;4969329;28;20205;-76
2020/12/28 03:57:15;;;;;;;8.77;8.37;;;5.60;99.90;;;;;;4972832;28;20768;-77
2020/12/28 04:00:01;;;;;;;8.80;8.13;;;5.60;99.90;;;;;;4964523;28;20873;-75
2020/12/28 04:02:49;;;;;;;8.20;7.80;;;5.60;99.90;;;;;;4967935;28;20225;-76
2020/12/28 04:05:34;;;;;;;8.70;8.20;;;5.60;99.90;;;;;;4972808;28;20255;-77
2020/12/28 04:08:19;;;;;;;8.70;8.20;;;5.60;99.90;;;;;;4965954;28;20209;-78
2020/12/28 04:11:11;;;;;;;9.13;8.63;;;5.60;99.90;;;;;;4957799;28;20317;-77
2020/12/28 04:14:00;;;;;;;9.17;8.67;;;5.60;99.90;;;;;;4969654;28;20574;-77
2020/12/28 04:16:27;;;;;;;8.90;8.40;;;5.70;99.90;;;;;;4971852;28;20702;-78
2020/12/28 04:18:53;;;;;;;9.10;8.60;;;5.60;99.90;;;;;;4973904;28;20201;-77
2020/12/28 04:21:20;;;;;;;8.90;8.40;;;5.60;99.90;;;;;;4973272;28;20201;-77
2020/12/28 04:23:46;;;;;;;9.00;8.50;;;5.60;99.90;;;;;;4973048;28;20213;-77
2020/12/28 04:26:12;;;;;;;8.83;8.33;;;5.60;99.90;;;;;;4972836;28;20309;-76
2020/12/28 04:28:39;;;;;;;9.10;8.60;;;5.60;99.90;;;;;;4972700;28;20671;-77
2020/12/28 04:31:09;;;;;;;8.93;8.43;;;5.50;99.90;;;;;;4971437;28;20324;-76
2020/12/28 04:33:37;;;;;;;9.07;8.57;;;5.50;99.90;;;;;;4970610;28;20248;-77
2020/12/28 04:36:03;;;;;;;9.20;8.70;;;5.50;99.90;;;;;;4972088;28;20288;-78
2020/12/28 04:38:30;;;;;;;9.10;8.60;;;5.50;99.90;;;;;;4970776;28;20237;-76
2020/12/28 04:40:56;;;;;;;9.50;8.90;;;5.40;99.90;;;;;;4972588;28;20225;-78
2020/12/28 04:43:25;;;;;;;8.80;8.30;;;5.40;99.90;;;;;;4970119;28;20229;-79
2020/12/28 04:45:56;;;;;;;8.57;8.07;;;5.40;99.90;;;;;;4973003;28;20254;-78
2020/12/28 04:48:23;;;;;;;8.90;8.40;;;5.30;99.90;;;;;;4972339;28;20230;-78
2020/12/28 04:50:50;;;;;;;8.93;8.47;;;5.40;99.90;;;;;;4974470;28;20229;-78
2020/12/28 04:53:17;;;;;;;9.00;8.50;;;5.30;99.90;;;;;;4973707;28;20284;-78
2020/12/28 04:55:43;;;;;;;8.97;8.47;;;5.30;99.90;;;;;;4972886;28;20190;-78
2020/12/28 04:58:10;;;;;;;9.20;8.70;;;5.30;99.90;;;;;;4973926;28;20253;-78
2020/12/28 05:00:40;;;;;;;9.60;9.10;;;5.30;99.90;;;;;;4972839;28;20482;-78
2020/12/28 05:03:06;;;;;;;8.77;8.27;;;5.30;99.90;;;;;;4973054;28;20705;-78
2020/12/28 05:05:43;;;;;;;8.90;8.40;;;5.30;99.90;;;;;;4967821;28;20226;-76
2020/12/28 05:08:10;;;;;;;9.00;8.50;;;5.20;99.90;;;;;;4975873;28;20469;-77
2020/12/28 05:10:36;;;;;;;8.43;8.03;;;5.20;99.90;;;;;;4976017;28;20532;-78
2020/12/28 05:13:07;;;;;;;9.30;8.80;;;5.20;99.90;;;;;;4976671;28;20232;-78
2020/12/28 05:15:33;;;;;;;9.20;8.70;;;5.20;99.90;;;;;;4977135;28;20792;-77
2020/12/28 05:18:00;;;;;;;9.00;8.50;;;5.20;99.90;;;;;;4977743;28;20867;-78
2020/12/28 05:20:27;;;;;;;9.67;9.07;;;5.10;99.90;;;;;;4968315;28;20228;-77
2020/12/28 05:22:53;;;;;;;9.70;9.10;;;5.10;99.90;;;;;;4976565;28;20249;-77
2020/12/28 05:25:22;;;;;;;9.60;8.90;;;5.10;99.90;;;;;;4977435;28;20479;-78
2020/12/28 05:27:49;;;;;;;9.50;9.00;;;5.10;99.90;;;;;;4976198;28;20312;-78
2020/12/28 05:30:16;;;;;;;10.00;9.30;;;5.10;99.90;;;;;;4976324;28;20437;-77
2020/12/28 05:32:44;;;;;;;9.57;9.07;;;5.10;99.90;;;;;;4976377;28;20293;-78
2020/12/28 05:35:13;;;;;;;9.60;9.10;;;5.10;99.90;;;;;;4976701;28;20475;-79
2020/12/28 05:37:40;;;;;;;9.47;8.97;;;5.10;99.90;;;;;;4974483;28;20222;-78
2020/12/28 05:40:10;;;;;;;9.90;9.30;;;5.00;99.90;;;;;;4976540;28;20919;-78
2020/12/28 05:42:38;;;;;;;9.53;8.97;;;5.00;99.90;;;;;;4973437;28;20233;-79
2020/12/28 05:45:08;;;;;;;9.00;8.50;;;5.00;99.90;;;;;;4973506;28;20213;-79
2020/12/28 05:47:40;;;;;;;9.50;8.90;;;5.00;99.90;;;;;;4972727;28;20253;-78
2020/12/28 05:50:06;;;;;;;9.30;8.80;;;5.00;99.90;;;;;;4973843;28;20433;-79
2020/12/28 05:52:37;;;;;;;9.87;9.10;;;5.00;99.90;;;;;;4975004;28;20276;-79
2020/12/28 05:55:04;;;;;;;9.47;8.90;;;4.90;99.90;;;;;;4975442;28;20457;-78
2020/12/28 05:57:30;;;;;;;9.67;9.07;;;4.90;99.90;;;;;;4975611;28;20738;-80
2020/12/28 05:59:58;;;;;;;9.60;9.00;;;4.90;99.90;;;;;;4971939;28;20881;-80
2020/12/28 06:02:28;;;;;;;9.80;9.30;;;4.90;99.90;;;;;;4962550;28;20306;-80
2020/12/28 06:04:55;;;;;;;9.47;8.97;;;4.90;99.90;;;;;;4973514;28;20197;-79
2020/12/28 06:07:22;;;;;;;9.70;9.10;;;4.90;99.90;;;;;;4962164;28;20376;-79
2020/12/28 06:09:55;;;;;;;10.00;9.40;;;4.80;99.90;;;;;;4974065;28;20669;-79
2020/12/28 06:12:21;;;;;;;9.60;9.10;;;4.90;99.90;;;;;;4975295;28;20422;-79
2020/12/28 06:14:47;;;;;;;10.07;9.47;;;4.80;99.90;;;;;;4975013;28;20209;-78
2020/12/28 06:17:14;;;;;;;9.50;9.00;;;4.80;99.90;;;;;;4969874;28;20245;-79
2020/12/28 06:19:42;;;;;;;10.07;9.53;;;4.80;99.90;;;;;;4974248;28;20445;-79
2020/12/28 06:22:19;;;;;;;9.60;9.10;;;4.80;99.90;;;;;;4966884;28;20215;-79
2020/12/28 06:24:56;;;;;;;10.00;9.40;;;4.80;99.90;;;;;;4966040;28;20236;-80
2020/12/28 06:27:29;;;;;;;9.80;9.20;;;4.80;99.90;;;;;;4974570;28;20245;-78
2020/12/28 06:30:16;;;;;;;9.60;9.10;;;4.80;99.90;;;;;;4972349;28;20481;-79
2020/12/28 06:32:44;;;;;;;10.20;9.50;;;4.80;99.90;;;;;;4963156;28;20449;-80
2020/12/28 06:35:12;;;;;;;9.60;9.10;;;4.70;99.90;;;;;;4965658;28;20233;-79
2020/12/28 06:37:40;;;;;;;10.23;9.63;;;4.70;99.90;;;;;;4964810;28;20253;-79
2020/12/28 06:40:07;;;;;;;10.17;9.57;;;4.70;99.90;;;;;;4975457;28;20222;-79
2020/12/28 06:42:34;;;;;;;9.80;9.20;;;4.70;99.90;;;;;;4965565;28;20489;-79
2020/12/28 06:45:14;;;;;;;10.10;9.50;;;4.70;99.90;;;;;;4971376;28;20473;-78
2020/12/28 06:47:42;;;;;;;9.77;9.27;;;4.70;99.90;;;;;;4996729;23;20526;-78
2020/12/28 06:50:09;;;;;;;10.00;9.50;;;4.70;99.90;;;;;;5002611;28;20499;-78
2020/12/28 06:52:35;;;;;;;9.70;9.20;;;4.70;99.90;;;;;;4997334;28;20452;-78
2020/12/28 06:55:09;;;;;;;9.60;9.10;;;4.70;99.90;;;;;;4975432;28;20507;-78
2020/12/28 06:57:36;;;;;;;9.83;9.20;;;4.70;99.90;;;;;;4972392;28;20523;-77
2020/12/28 07:00:04;;;;;;;9.60;9.10;;;4.70;99.90;;;;;;4996831;28;20193;-78
2020/12/28 07:02:31;;;;;;;10.47;9.77;;;4.70;99.90;;;;;;4972662;28;20301;-77
2020/12/28 07:05:01;;;;;;;10.20;9.60;;;4.70;99.90;;;;;;4982643;28;20437;-77
2020/12/28 07:07:39;;;;;;;10.00;9.40;;;4.70;99.90;;;;;;4974968;28;20555;-82
2020/12/28 07:10:06;;;;;;;9.47;8.97;;;4.70;99.90;;;;;;4969016;28;20518;-77
2020/12/28 07:12:32;;;;;;;10.10;9.50;;;4.60;99.90;;;;;;4993676;28;20501;-76
2020/12/28 07:15:02;;;;;;;9.80;9.30;;;4.70;99.90;;;;;;4976287;28;20476;-77
2020/12/28 07:17:29;;;;;;;10.63;9.93;;;4.60;99.90;;;;;;4990585;28;20492;-77
2020/12/28 07:20:01;;;;;;;10.00;9.40;;;4.60;99.90;;;;;;4993304;28;20215;-78
2020/12/28 07:22:27;;;;;;;9.80;9.30;;;4.60;99.90;;;;;;4985786;28;20545;-76
2020/12/28 07:24:54;;;;;;;10.70;10.10;;;4.60;99.90;;;;;;4974649;28;20534;-77
2020/12/28 07:27:21;;;;;;;10.30;9.70;;;4.50;99.90;;;;;;4985022;28;20524;-77
2020/12/28 07:29:47;;;;;;;10.40;9.80;;;4.50;99.90;;;;;;4963053;28;20495;-77
2020/12/28 07:32:17;;;;;;;10.40;9.70;;;4.50;99.90;;;;;;4971522;28;20522;-77
2020/12/28 07:34:52;;;;;;;10.83;10.23;;;4.50;99.90;;;;;;4970837;28;20482;-78
2020/12/28 07:37:18;;;;;;;10.97;10.37;;;4.50;99.90;;;;;;4986573;28;20488;-77
2020/12/28 07:39:47;;;;;;;11.53;10.90;;;4.40;99.90;;;;;;4987211;28;20891;-77
2020/12/28 07:42:19;;;;;;;10.90;10.30;;;4.40;99.90;;;;;;4989340;28;20924;-77
2020/12/28 07:44:52;;;;;;;11.30;10.60;;;4.40;99.90;;;;;;4974007;28;20454;-78
2020/12/28 07:47:21;;;;;;;11.10;10.50;;;4.50;99.90;;;;;;4966083;28;20225;-78
2020/12/28 07:49:50;;;;;;;11.10;10.43;;;4.50;99.90;;;;;;4984511;28;20475;-78
2020/12/28 07:52:24;;;;;;;11.20;10.50;;;4.50;99.90;;;;;;4986074;28;20425;-77
2020/12/28 07:54:58;;;;;;;12.37;11.57;;;4.50;99.90;;;;;;4966171;28;20981;-78
2020/12/28 07:57:42;;;;;;;12.20;11.50;;;4.50;99.90;;;;;;4981395;28;20983;-77
2020/12/28 08:00:11;;;;;;;12.60;11.80;;;4.50;99.90;;;;;;4983173;28;20465;-77
2020/12/28 08:03:03;;;;;;;13.37;12.43;;;4.50;99.90;;;;;;4975318;28;20511;-77
2020/12/28 08:05:32;;;;;;;12.63;11.83;;;4.50;99.90;;;;;;4983156;28;20931;-77
2020/12/28 08:07:58;;;;;;;11.80;11.10;;;4.50;99.90;;;;;;4992695;28;21004;-78
2020/12/28 08:10:25;;;;;;;11.93;11.23;;;4.50;99.90;;;;;;4991513;28;20880;-78
2020/12/28 08:12:58;;;;;;;12.10;11.30;;;4.60;99.90;;;;;;4972915;28;20475;-77
2020/12/28 08:15:29;;;;;;;11.97;11.20;;;4.60;99.90;;;;;;4974970;28;20969;-77
2020/12/28 08:18:06;;;;;;;11.90;11.20;;;4.60;99.90;;;;;;4991603;28;20591;-78
2020/12/28 08:20:33;;;;;;;12.67;11.87;;;4.60;99.90;;;;;;4975776;28;20444;-77
2020/12/28 08:22:59;;;;;;;12.73;11.90;;;4.60;99.90;;;;;;4986727;28;20280;-77
2020/12/28 08:25:28;;;;;;;11.97;11.27;;;4.70;99.90;;;;;;4968869;28;20193;-80
2020/12/28 08:27:56;;;;;;;12.27;11.47;;;4.70;99.90;;;;;;4994774;28;20466;-79
2020/12/28 08:30:24;;;;;;;12.67;11.87;;;4.70;99.90;;;;;;4974670;28;20492;-79
2020/12/28 08:32:50;;;;;;;11.97;11.27;;;4.70;99.90;;;;;;4981944;28;20440;-79
2020/12/28 08:35:17;;;;;;;11.70;11.00;;;4.70;99.90;;;;;;4987385;28;20924;-78
2020/12/28 08:37:48;;;;;;;12.23;11.43;;;4.70;99.90;;;;;;4991876;28;20460;-81
2020/12/28 08:40:16;;;;;;;11.33;10.53;;;4.70;99.90;;;;;;4993063;28;20937;-80
2020/12/28 08:42:42;;;;;;;12.37;11.53;;;4.70;99.90;;;;;;4991303;28;20487;-81
2020/12/28 08:45:18;;;;;;;13.03;12.23;;;4.80;99.90;;;;;;4975559;28;20451;-80
2020/12/28 08:47:50;;;;;;;12.73;11.90;;;4.80;99.90;;;;;;4990083;28;20221;-80
2020/12/28 08:50:16;;;;;;;11.87;11.07;;;4.80;99.90;;;;;;4971342;28;20445;-77
2020/12/28 08:52:50;;;;;;;11.77;11.07;;;4.80;99.90;;;;;;4971513;28;20445;-77
2020/12/28 08:55:18;;;;;;;12.50;11.70;;;4.80;99.90;;;;;;4976352;28;20444;-78
2020/12/28 08:57:50;;;;;;;12.37;11.57;;;4.90;99.90;;;;;;4977077;28;20503;-78
2020/12/28 09:00:17;;;;;;;12.10;11.30;;;4.90;99.90;;;;;;4995268;28;20193;-78
2020/12/28 09:02:50;;;;;;;11.53;10.83;;;4.90;99.90;;;;;;4975776;28;20476;-77
2020/12/28 09:05:17;;;;;;;11.67;10.77;;;4.90;99.90;;;;;;4988292;28;20221;-78
2020/12/28 09:07:43;;;;;;;11.67;10.97;;;4.90;99.90;;;;;;4989344;28;20891;-77
2020/12/28 09:10:10;;;;;;;11.70;11.00;;;5.00;99.90;;;;;;4990173;28;20642;-77
2020/12/28 09:12:36;;;;;;;12.33;11.53;;;5.00;99.90;;;;;;4969457;28;20808;-77
2020/12/28 09:15:02;;;;;;;11.97;11.27;;;5.00;99.90;;;;;;4967665;28;20608;-78
2020/12/28 09:17:29;;;;;;;11.20;10.50;;;5.00;99.90;;;;;;4975357;28;20319;-79
2020/12/28 09:19:56;;;;;;;11.60;10.90;;;5.00;99.90;;;;;;4968707;28;20625;-78
2020/12/28 09:22:22;;;;;;;11.53;10.77;;;5.00;99.90;;;;;;4993877;28;20205;-78
2020/12/28 09:24:48;;;;;;;11.10;10.40;;;4.90;99.90;;;;;;4993009;28;20259;-77
2020/12/28 09:27:14;;;;;;;11.63;10.93;;;4.90;99.90;;;;;;4992950;28;20228;-78
2020/12/28 09:29:41;;;;;;;11.77;11.07;;;4.90;99.90;;;;;;4974405;28;20224;-79
2020/12/28 09:32:07;;;;;;;12.27;11.47;;;4.90;99.90;;;;;;4975303;28;20575;-77
2020/12/28 09:34:34;;;;;;;12.20;11.50;;;4.90;99.90;;;;;;4976374;28;20209;-80
2020/12/28 09:37:02;;;;;;;12.10;11.30;;;4.80;99.90;;;;;;4976108;28;20480;-78
2020/12/28 09:39:28;;;;;;;12.07;11.27;;;4.80;99.90;;;;;;4986889;28;20471;-78
2020/12/28 09:41:55;;;;;;;13.30;12.40;;;4.80;99.90;;;;;;4977949;28;20675;-78
2020/12/28 09:44:21;;;;;;;13.00;12.00;;;4.80;99.90;;;;;;4980124;28;20256;-77
2020/12/28 09:46:48;;;;;;;13.00;12.10;;;4.80;99.90;;;;;;4971411;28;20514;-78
2020/12/28 09:49:14;;;;;;;12.67;11.77;;;4.80;99.90;;;;;;4975673;28;20208;-79
2020/12/28 09:51:44;;;;;;;13.20;12.23;;;4.90;99.90;;;;;;4993604;28;20224;-77
2020/12/28 09:54:11;;;;;;;12.70;11.80;;;4.90;99.90;;;;;;4993352;28;20205;-78
2020/12/28 09:56:37;;;;;;;12.43;11.37;;;5.00;99.90;;;;;;4996492;28;20248;-78
2020/12/28 09:59:03;;;;;;;12.33;11.53;;;5.00;99.90;;;;;;4990624;28;20228;-78
2020/12/28 10:01:29;;;;;;;11.97;11.17;;;5.00;99.90;;;;;;4979119;28;20328;-77
2020/12/28 10:04:06;;;;;;;11.50;10.70;;;5.00;99.90;;;;;;4974273;28;20248;-78
2020/12/28 10:06:34;;;;;;;12.10;11.17;;;5.00;99.90;;;;;;4977334;28;20487;-78
2020/12/28 10:09:06;;;;;;;11.80;11.00;;;5.00;99.90;;;;;;4978202;28;20551;-78
2020/12/28 10:11:32;;;;;;;12.17;11.27;;;5.00;99.90;;;;;;4978381;28;20666;-78
2020/12/28 10:13:59;;;;;;;12.13;11.33;;;5.10;99.90;;;;;;4994126;28;20620;-78
2020/12/28 10:16:27;;;;;;;12.07;11.10;;;5.00;99.90;;;;;;4994859;28;20613;-79
2020/12/28 10:18:53;;;;;;;12.63;11.50;;;5.00;99.90;;;;;;4994359;28;20193;-79
2020/12/28 10:21:20;;;;;;;13.00;12.07;;;5.10;99.90;;;;;;4977578;28;20221;-78
2020/12/28 10:23:47;;;;;;;12.73;11.77;;;5.10;99.90;;;;;;4997343;28;20217;-75
2020/12/28 10:26:19;;;;;;;13.07;12.07;;;5.10;99.90;;;;;;4997859;28;20575;-78
2020/12/28 10:28:46;;;;;;;12.60;11.77;;;5.10;99.90;;;;;;4978405;28;20216;-73
2020/12/28 10:31:14;;;;;;;12.03;11.23;;;5.20;99.90;;;;;;4979557;28;20201;-79
2020/12/28 10:33:41;;;;;;;12.57;11.77;;;5.20;99.90;;;;;;4979065;28;20200;-78
2020/12/28 10:36:12;;;;;;;12.07;11.27;;;5.20;99.90;;;;;;4996802;28;20444;-76
2020/12/28 10:38:39;;;;;;;11.37;10.57;;;5.30;99.90;;;;;;4991472;28;20221;-77
2020/12/28 10:41:05;;;;;;;11.37;10.63;;;5.30;99.90;;;;;;4976464;28;20232;-77
2020/12/28 10:43:32;;;;;;;11.90;11.10;;;5.30;99.90;;;;;;4990127;28;21019;-76
2020/12/28 10:45:58;;;;;;;11.10;10.40;;;5.30;99.90;;;;;;4994178;28;20229;-78
2020/12/28 10:48:25;;;;;;;11.47;10.70;;;5.30;99.90;;;;;;4993870;28;20221;-77
2020/12/28 10:50:51;;;;;;;10.83;10.13;;;5.30;99.90;;;;;;4994070;28;20194;-77
2020/12/28 10:53:17;;;;;;;11.10;10.30;;;5.30;99.90;;;;;;4976467;28;20251;-77
2020/12/28 10:55:45;;;;;;;10.43;9.73;;;5.20;99.90;;;;;;4976354;28;20212;-78
2020/12/28 10:58:13;;;;;;;10.37;9.77;;;5.30;99.90;;;;;;4976235;28;20245;-77
2020/12/28 11:00:40;;;;;;;11.00;10.30;;;5.30;99.90;;;;;;4976620;28;20284;-77
2020/12/28 11:03:07;;;;;;;10.67;10.00;;;5.40;99.90;;;;;;4997461;28;20686;-78
2020/12/28 11:05:33;;;;;;;10.97;10.23;;;5.40;99.90;;;;;;4994914;28;20193;-80
2020/12/28 11:07:59;;;;;;;11.10;10.40;;;5.40;99.90;;;;;;4992112;28;20245;-81
2020/12/28 11:10:26;;;;;;;10.20;9.60;;;5.40;99.90;;;;;;4994252;28;20193;-78
2020/12/28 11:12:52;;;;;;;10.87;10.23;;;5.40;99.90;;;;;;4980178;28;20782;-78
2020/12/28 11:15:18;;;;;;;10.43;9.83;;;5.40;99.90;;;;;;4996590;28;20205;-79
2020/12/28 11:17:45;;;;;;;10.33;9.73;;;5.40;99.90;;;;;;4996938;28;20221;-78
2020/12/28 11:20:12;;;;;;;10.80;10.00;;;5.50;99.90;;;;;;4996979;28;20209;-76
2020/12/28 11:22:38;;;;;;;10.27;9.67;;;5.60;99.90;;;;;;4973980;28;20249;-79
2020/12/28 11:25:04;;;;;;;10.40;9.80;;;5.60;99.90;;;;;;4995223;28;20283;-78
2020/12/28 11:27:32;;;;;;;10.57;9.93;;;5.70;99.90;;;;;;4989115;28;20238;-77
2020/12/28 11:29:58;;;;;;;11.00;10.17;;;5.70;99.90;;;;;;4977311;28;20201;-77
2020/12/28 11:32:24;;;;;;;10.50;9.90;;;5.60;99.90;;;;;;4976891;28;20251;-77
2020/12/28 11:34:51;;;;;;;10.27;9.67;;;5.60;99.90;;;;;;4976224;28;20229;-77
2020/12/28 11:37:18;;;;;;;10.50;9.80;;;5.70;99.90;;;;;;4973025;28;20810;-77
2020/12/28 11:39:44;;;;;;;10.13;9.53;;;5.70;99.90;;;;;;4976384;28;20220;-77
2020/12/28 11:42:12;;;;;;;10.63;9.93;;;5.70;99.90;;;;;;4985208;28;20232;-77
2020/12/28 11:44:39;;;;;;;9.93;9.30;;;5.70;99.90;;;;;;4993892;28;20636;-77
2020/12/28 11:47:05;;;;;;;9.73;9.20;;;5.70;99.90;;;;;;4993869;28;20228;-77
2020/12/28 11:49:31;;;;;;;9.93;9.33;;;5.70;99.90;;;;;;4977254;28;20244;-77
2020/12/28 11:51:58;;;;;;;9.80;9.20;;;5.70;99.90;;;;;;4975867;28;20284;-77
2020/12/28 11:54:24;;;;;;;9.80;9.20;;;5.60;99.90;;;;;;4989203;28;20218;-77
2020/12/28 11:56:51;;;;;;;10.00;9.40;;;5.70;99.90;;;;;;4991457;28;20225;-77
2020/12/28 11:59:17;;;;;;;9.70;9.10;;;5.70;99.90;;;;;;4971283;28;20224;-78
2020/12/28 12:01:47;;;;;;;9.83;9.23;;;5.60;99.90;;;;;;4975760;28;20559;-77
2020/12/28 12:04:13;;;;;;;10.90;10.10;;;5.60;99.90;;;;;;4992887;28;20225;-77
2020/12/28 12:06:39;;;;;;;10.80;10.10;;;5.60;99.90;;;;;;4969121;28;20279;-77
2020/12/28 12:09:13;;;;;;;10.67;9.90;;;5.60;99.90;;;;;;4993203;28;20632;-78
2020/12/28 12:11:43;;;;;;;10.47;9.87;;;5.60;99.90;;;;;;4985607;28;20204;-77
2020/12/28 12:14:10;;;;;;;10.53;9.93;;;5.60;99.90;;;;;;4970169;28;20194;-78
2020/12/28 12:16:37;;;;;;;10.40;9.70;;;5.60;99.90;;;;;;4988750;28;20222;-77
2020/12/28 12:19:04;;;;;;;10.77;10.17;;;5.70;99.90;;;;;;4991817;28;20205;-77
2020/12/28 12:21:31;;;;;;;11.20;10.50;;;5.70;99.90;;;;;;4989982;28;20282;-77
2020/12/28 12:23:58;;;;;;;10.50;9.80;;;5.70;99.90;;;;;;4992738;28;20224;-77
2020/12/28 12:26:26;;;;;;;10.50;9.90;;;5.70;99.90;;;;;;4975503;28;20240;-77
2020/12/28 12:28:53;;;;;;;10.60;10.00;;;5.70;99.90;;;;;;4994269;28;20193;-77
2020/12/28 12:31:20;;;;;;;10.70;10.10;;;5.70;99.90;;;;;;4991235;28;20693;-77
2020/12/28 12:33:47;;;;;;;9.80;9.27;;;5.70;99.90;;;;;;4989594;28;20284;-79
2020/12/28 12:36:14;;;;;;;10.30;9.60;;;5.70;99.90;;;;;;4976826;28;20548;-77
2020/12/28 12:38:41;;;;;;;10.17;9.57;;;5.70;99.90;;;;;;4990963;28;20197;-77
2020/12/28 12:41:07;;;;;;;10.00;9.40;;;5.70;99.90;;;;;;4993135;28;20202;-77
2020/12/28 12:43:34;;;;;;;10.33;9.73;;;5.70;99.90;;;;;;4990825;28;20214;-77
2020/12/28 12:46:01;;;;;;;10.30;9.70;;;5.70;99.90;;;;;;4975166;28;20733;-78
2020/12/28 12:48:27;;;;;;;10.30;9.70;;;5.70;99.90;;;;;;4994669;23;20595;-79
2020/12/28 12:50:54;;;;;;;10.53;9.83;;;5.80;99.90;;;;;;4990335;28;20681;-79
2020/12/28 12:53:21;;;;;;;10.40;9.80;;;5.80;99.90;;;;;;4993477;28;20260;-78
2020/12/28 12:55:47;;;;;;;9.83;9.27;;;5.80;99.90;;;;;;4961914;28;20663;-78
2020/12/28 12:58:15;;;;;;;9.83;9.27;;;5.90;99.90;;;;;;4981593;28;20237;-77
2020/12/28 13:00:42;;;;;;;11.33;10.63;;;5.90;99.90;;;;;;4958646;28;20681;-79
2020/12/28 13:03:08;;;;;;;10.07;9.43;;;5.90;99.90;;;;;;4959360;28;20209;-82